createdAt,value
2019-03-15T00:10:59.882Z,17.48
2019-03-15T00:13:29.113Z,17.98
2019-03-15T00:15:58.157Z,20.60
2019-03-15T00:18:27.268Z,18.73
2019-03-15T00:20:56.407Z,20.92
2019-03-15T00:23:25.442Z,17.15
2019-03-15T00:25:55.546Z,21.25
2019-03-15T00:28:23.584Z,18.70
2019-03-15T00:30:52.749Z,18.90
2019-03-15T00:33:21.877Z,18.25
2019-03-15T00:35:50.980Z,18.02
2019-03-15T00:38:20.052Z,22.37
2019-03-15T00:40:49.133Z,19.42
2019-03-15T00:43:18.308Z,19.73
2019-03-15T00:45:47.370Z,26.50
2019-03-15T00:48:16.478Z,20.72
2019-03-15T00:50:45.552Z,19.20
2019-03-15T00:53:14.507Z,19.15
2019-03-15T00:55:43.549Z,18.87
2019-03-15T00:58:12.772Z,17.48
2019-03-15T01:00:41.890Z,19.40
2019-03-15T01:03:11.048Z,17.92
2019-03-15T01:05:40.104Z,18.85
2019-03-15T01:08:09.216Z,18.37
2019-03-15T01:10:38.419Z,18.57
2019-03-15T01:13:07.537Z,18.15
2019-03-15T01:15:36.770Z,21.42
2019-03-15T01:18:06.211Z,30.37
2019-03-15T01:20:35.268Z,28.15
2019-03-15T01:23:04.376Z,22.17
2019-03-15T01:25:33.388Z,21.30
2019-03-15T01:28:02.568Z,18.40
2019-03-15T01:30:31.524Z,18.48
2019-03-15T01:33:01.202Z,16.57
2019-03-15T01:35:33.417Z,14.13
2019-03-15T01:37:59.369Z,21.35
2019-03-15T01:40:28.496Z,19.70
2019-03-15T01:42:57.580Z,15.23
2019-03-15T01:45:26.549Z,15.83
2019-03-15T01:47:55.573Z,16.85
2019-03-15T01:50:24.828Z,16.55
2019-03-15T01:52:53.850Z,16.90
2019-03-15T01:55:23.003Z,16.37
2019-03-15T01:57:52.048Z,16.87
2019-03-15T02:00:21.138Z,16.97
2019-03-15T02:02:50.246Z,17.00
2019-03-15T02:05:19.312Z,15.58
2019-03-15T02:07:48.364Z,14.85
2019-03-15T02:10:17.521Z,16.23
2019-03-15T02:12:47.478Z,15.30
2019-03-15T02:15:15.614Z,15.95
2019-03-15T02:17:44.722Z,16.42
2019-03-15T02:20:13.997Z,17.55
2019-03-15T02:22:42.979Z,19.00
2019-03-15T02:25:12.217Z,18.75
2019-03-15T02:27:41.284Z,17.75
2019-03-15T02:30:10.821Z,17.45
2019-03-15T02:32:40.229Z,17.17
2019-03-15T02:35:08.985Z,18.15
2019-03-15T02:37:38.002Z,17.57
2019-03-15T02:40:07.268Z,18.30
2019-03-15T02:42:36.372Z,17.90
2019-03-15T02:45:06.316Z,17.77
2019-03-15T02:47:34.828Z,19.17
2019-03-15T02:50:03.919Z,18.20
2019-03-15T02:52:32.949Z,20.60
2019-03-15T02:55:02.198Z,20.10
2019-03-15T02:57:31.260Z,19.05
2019-03-15T03:00:00.373Z,20.17
2019-03-15T03:02:29.707Z,35.13
2019-03-15T03:04:58.959Z,30.05
2019-03-15T03:07:28.063Z,20.82
2019-03-15T03:09:57.237Z,20.97
2019-03-15T03:12:26.249Z,21.82
2019-03-15T03:14:55.391Z,20.32
2019-03-15T03:17:24.542Z,23.50
2019-03-15T03:19:54.137Z,18.87
2019-03-15T03:22:22.615Z,18.82
2019-03-15T03:24:51.793Z,17.80
2019-03-15T03:27:20.817Z,18.70
2019-03-15T03:29:49.916Z,19.70
2019-03-15T03:32:19.025Z,16.97
2019-03-15T03:34:48.097Z,16.95
2019-03-15T03:37:17.226Z,20.30
2019-03-15T03:39:46.940Z,24.85
2019-03-15T03:42:16.021Z,19.05
2019-03-15T03:44:45.213Z,18.32
2019-03-15T03:47:14.228Z,16.87
2019-03-15T03:49:43.236Z,16.90
2019-03-15T03:52:12.292Z,16.45
2019-03-15T03:54:41.432Z,16.52
2019-03-15T03:57:10.721Z,16.40
2019-03-15T03:59:39.918Z,16.60
2019-03-15T04:02:09.279Z,17.90
2019-03-15T04:04:38.647Z,18.45
2019-03-15T04:07:07.808Z,18.17
2019-03-15T04:09:37.020Z,20.62
2019-03-15T04:12:06.218Z,20.02
2019-03-15T04:14:35.285Z,20.37
2019-03-15T04:17:04.409Z,22.02
2019-03-15T04:19:33.568Z,23.07
2019-03-15T04:22:02.689Z,24.10
2019-03-15T04:24:31.924Z,27.37
2019-03-15T04:27:00.866Z,29.40
2019-03-15T04:29:29.971Z,33.35
2019-03-15T04:31:59.832Z,35.17
2019-03-15T04:34:28.884Z,38.80
2019-03-15T04:36:57.963Z,39.15
2019-03-15T04:39:27.095Z,37.73
2019-03-15T04:41:56.264Z,38.83
2019-03-15T04:44:25.359Z,36.75
2019-03-15T04:46:54.752Z,36.73
2019-03-15T04:49:23.869Z,33.60
2019-03-15T04:51:52.851Z,32.40
2019-03-15T04:54:21.935Z,33.38
2019-03-15T04:56:50.956Z,36.30
2019-03-15T04:59:20.112Z,44.58
2019-03-15T05:01:49.281Z,41.23
2019-03-15T05:04:18.449Z,44.00
2019-03-15T05:06:47.983Z,44.98
2019-03-15T05:09:17.202Z,43.78
2019-03-15T05:11:46.241Z,40.60
2019-03-15T05:14:15.332Z,29.75
2019-03-15T05:16:44.502Z,30.48
2019-03-15T05:19:13.535Z,29.40
2019-03-15T05:21:42.518Z,28.98
2019-03-15T05:24:11.596Z,28.62
2019-03-15T05:26:40.664Z,29.15
2019-03-15T05:29:10.532Z,26.75
2019-03-15T05:31:40.485Z,83.30
2019-03-15T05:34:09.540Z,31.07
2019-03-15T05:36:38.686Z,23.25
2019-03-15T05:39:08.083Z,20.88
2019-03-15T05:41:37.128Z,21.62
2019-03-15T05:44:06.166Z,21.23
2019-03-15T05:46:35.616Z,21.60
2019-03-15T05:49:04.843Z,22.70
2019-03-15T05:51:34.297Z,22.62
2019-03-15T05:54:03.520Z,22.93
2019-03-15T05:56:32.777Z,22.32
2019-03-15T05:59:01.832Z,23.57
2019-03-15T06:01:31.028Z,31.50
2019-03-15T06:03:59.876Z,35.35
2019-03-15T06:06:29.117Z,25.65
2019-03-15T06:08:58.237Z,23.18
2019-03-15T06:11:27.212Z,23.65
2019-03-15T06:13:56.327Z,22.50
2019-03-15T06:16:25.462Z,20.00
2019-03-15T06:18:54.609Z,22.67
2019-03-15T06:21:23.702Z,24.80
2019-03-15T06:23:52.834Z,21.15
2019-03-15T06:26:22.074Z,20.90
2019-03-15T06:28:51.178Z,19.90
2019-03-15T06:31:20.478Z,21.42
2019-03-15T06:33:49.707Z,25.00
2019-03-15T06:36:19.074Z,35.48
2019-03-15T06:38:49.033Z,25.30
2019-03-15T06:41:18.486Z,23.10
2019-03-15T06:43:47.698Z,32.88
2019-03-15T06:46:16.847Z,34.95
2019-03-15T06:48:46.173Z,33.95
2019-03-15T06:51:17.047Z,34.10
2019-03-15T06:53:47.876Z,31.35
2019-03-15T06:56:15.248Z,32.05
2019-03-15T06:58:44.448Z,33.02
2019-03-15T07:01:13.801Z,32.83
2019-03-15T07:03:42.919Z,31.85
2019-03-15T07:06:11.994Z,32.73
2019-03-15T07:08:41.234Z,31.93
2019-03-15T07:11:10.362Z,31.12
2019-03-15T07:13:39.710Z,33.23
2019-03-15T07:16:08.932Z,33.80
2019-03-15T07:18:38.516Z,33.78
2019-03-15T07:21:07.718Z,29.85
2019-03-15T07:23:36.957Z,29.18
2019-03-15T07:26:06.653Z,28.73
2019-03-15T07:28:35.754Z,31.12
2019-03-15T07:31:04.885Z,37.55
2019-03-15T07:33:33.972Z,32.00
2019-03-15T07:36:03.578Z,32.50
2019-03-15T07:38:33.925Z,31.37
2019-03-15T07:41:03.409Z,33.53
2019-03-15T07:43:32.579Z,31.45
2019-03-15T07:46:01.782Z,33.33
2019-03-15T07:48:31.509Z,34.13
2019-03-15T07:51:00.736Z,34.45
2019-03-15T07:53:30.230Z,37.85
2019-03-15T07:55:59.742Z,35.83
2019-03-15T07:58:29.016Z,35.33
2019-03-15T08:00:58.048Z,33.92
2019-03-15T08:03:27.670Z,33.63
2019-03-15T08:05:56.704Z,33.00
2019-03-15T08:08:26.152Z,32.60
2019-03-15T08:10:55.457Z,32.83
2019-03-15T08:13:24.625Z,37.67
2019-03-15T08:15:54.792Z,36.88
2019-03-15T08:18:23.828Z,36.30
2019-03-15T08:20:52.915Z,36.00
2019-03-15T08:23:22.494Z,33.48
2019-03-15T08:25:51.658Z,33.00
2019-03-15T08:28:20.771Z,33.58
2019-03-15T08:30:50.173Z,30.60
2019-03-15T08:33:19.259Z,29.35
2019-03-15T08:35:48.609Z,30.20
2019-03-15T08:38:17.609Z,29.72
2019-03-15T08:40:46.729Z,27.60
2019-03-15T08:43:16.283Z,27.73
2019-03-15T08:45:46.332Z,28.77
2019-03-15T08:48:15.547Z,29.90
2019-03-15T08:50:44.631Z,26.33
2019-03-15T08:53:14.135Z,25.48
2019-03-15T08:55:43.734Z,24.82
2019-03-15T08:58:14.573Z,26.93
2019-03-15T09:00:42.073Z,21.50
2019-03-15T09:03:12.190Z,22.60
2019-03-15T09:05:41.270Z,23.90
2019-03-15T09:08:10.534Z,22.85
2019-03-15T09:10:39.777Z,25.40
2019-03-15T09:13:09.080Z,24.65
2019-03-15T09:15:38.763Z,23.80
2019-03-15T09:18:08.026Z,25.17
2019-03-15T09:20:37.127Z,24.27
2019-03-15T09:23:06.361Z,22.27
2019-03-15T09:25:35.466Z,23.67
2019-03-15T09:28:04.838Z,26.30
2019-03-15T09:30:34.056Z,22.85
2019-03-15T09:33:03.471Z,24.77
2019-03-15T09:35:32.579Z,23.18
2019-03-15T09:38:01.695Z,18.10
2019-03-15T09:40:32.645Z,18.45
2019-03-15T09:43:01.691Z,17.07
2019-03-15T09:45:30.902Z,16.85
2019-03-15T09:48:00.190Z,17.73
2019-03-15T09:50:40.103Z,16.45
2019-03-15T09:52:59.046Z,17.07
2019-03-15T09:55:33.191Z,17.07
2019-03-15T09:57:57.305Z,17.12
2019-03-15T10:00:26.547Z,16.12
2019-03-15T10:02:56.100Z,12.90
2019-03-15T10:05:24.811Z,8.28
2019-03-15T10:07:53.975Z,9.28
2019-03-15T10:10:23.240Z,10.80
2019-03-15T10:13:05.387Z,10.95
2019-03-15T10:15:22.027Z,11.50
2019-03-15T10:17:51.331Z,11.43
2019-03-15T10:20:21.223Z,11.00
2019-03-15T10:23:04.869Z,10.93
2019-03-15T10:25:19.550Z,9.83
2019-03-15T10:27:49.057Z,9.15
2019-03-15T10:30:18.813Z,8.50
2019-03-15T10:32:48.189Z,9.78
2019-03-15T10:35:17.246Z,9.90
2019-03-15T10:37:46.394Z,9.88
2019-03-15T10:40:16.460Z,8.98
2019-03-15T10:42:45.547Z,9.45
2019-03-15T10:45:14.787Z,9.75
2019-03-15T10:47:44.262Z,11.43
2019-03-15T10:50:13.605Z,12.13
2019-03-15T10:52:42.881Z,12.45
2019-03-15T10:55:12.085Z,12.15
2019-03-15T10:57:41.272Z,11.63
2019-03-15T11:00:12.277Z,13.38
2019-03-15T11:02:41.514Z,12.55
2019-03-15T11:05:10.854Z,9.00
2019-03-15T11:07:40.018Z,9.48
2019-03-15T11:10:09.379Z,10.43
2019-03-15T11:12:38.526Z,9.35
2019-03-15T11:15:08.572Z,9.60
2019-03-15T11:17:37.902Z,9.45
2019-03-15T11:20:07.306Z,9.15
2019-03-15T11:22:36.393Z,9.93
2019-03-15T11:25:05.797Z,9.15
2019-03-15T11:27:34.947Z,10.58
2019-03-15T11:30:04.125Z,8.95
2019-03-15T11:32:33.394Z,8.58
2019-03-15T11:35:02.569Z,8.50
2019-03-15T11:37:31.581Z,7.42
2019-03-15T11:40:00.864Z,7.97
2019-03-15T11:42:29.988Z,8.38
2019-03-15T11:44:59.194Z,7.80
2019-03-15T11:47:28.350Z,9.98
2019-03-15T11:49:57.484Z,7.35
2019-03-15T11:52:27.376Z,6.53
2019-03-15T11:54:56.530Z,6.77
2019-03-15T11:57:25.700Z,6.60
2019-03-15T11:59:54.778Z,6.97
2019-03-15T12:02:23.943Z,7.10
2019-03-15T12:04:53.101Z,6.20
2019-03-15T12:07:25.186Z,6.00
2019-03-15T12:09:54.340Z,6.60
2019-03-15T12:12:23.470Z,6.60
2019-03-15T12:14:52.551Z,6.27
2019-03-15T12:17:21.793Z,6.43
2019-03-15T12:19:50.905Z,7.10
2019-03-15T12:22:20.052Z,6.47
2019-03-15T12:24:49.469Z,6.13
2019-03-15T12:27:18.632Z,5.50
2019-03-15T12:29:47.828Z,5.70
2019-03-15T12:32:17.077Z,6.10
2019-03-15T12:34:46.189Z,6.77
2019-03-15T12:37:15.377Z,6.63
2019-03-15T12:39:44.669Z,6.23
2019-03-15T12:42:14.195Z,5.43
2019-03-15T12:44:43.278Z,6.17
2019-03-15T12:47:12.318Z,6.17
2019-03-15T12:49:41.453Z,5.97
2019-03-15T12:52:10.855Z,5.90
2019-03-15T12:54:40.510Z,5.20
2019-03-15T12:57:09.643Z,5.60
2019-03-15T12:59:38.763Z,5.03
2019-03-15T13:02:08.933Z,4.80
2019-03-15T13:04:39.105Z,5.70
2019-03-15T13:07:08.405Z,5.60
2019-03-15T13:09:38.953Z,4.73
2019-03-15T13:12:08.647Z,5.23
2019-03-15T13:14:37.779Z,5.30
2019-03-15T13:17:07.556Z,5.33
2019-03-15T13:19:36.671Z,5.93
2019-03-15T13:22:06.809Z,5.50
2019-03-15T13:24:35.638Z,5.73
2019-03-15T13:27:07.653Z,6.63
2019-03-15T13:29:34.477Z,5.70
2019-03-15T13:32:03.682Z,5.13
2019-03-15T13:34:32.756Z,5.90
2019-03-15T13:37:02.484Z,14.03
2019-03-15T13:39:32.045Z,6.17
2019-03-15T13:42:01.173Z,5.67
2019-03-15T13:44:30.418Z,8.47
2019-03-15T13:46:59.474Z,9.95
2019-03-15T13:49:28.590Z,6.00
2019-03-15T13:51:57.658Z,5.83
2019-03-15T13:54:27.177Z,5.97
2019-03-15T13:56:56.245Z,7.00
2019-03-15T13:59:26.024Z,6.87
2019-03-15T14:01:55.252Z,6.67
2019-03-15T14:04:24.438Z,7.97
2019-03-15T14:06:54.235Z,9.03
2019-03-15T14:09:23.305Z,9.08
2019-03-15T14:11:52.468Z,37.45
2019-03-15T14:14:22.104Z,29.85
2019-03-15T14:16:51.169Z,9.03
2019-03-15T14:19:20.130Z,11.55
2019-03-15T14:21:49.393Z,5.17
2019-03-15T14:24:19.140Z,11.50
2019-03-15T14:26:50.816Z,5.30
2019-03-15T14:29:17.409Z,5.15
2019-03-15T14:31:46.487Z,18.65
2019-03-15T14:34:15.637Z,8.13
2019-03-15T14:36:45.101Z,7.00
2019-03-15T14:39:14.294Z,4.50
2019-03-15T14:41:43.393Z,5.05
2019-03-15T14:44:12.747Z,5.80
2019-03-15T14:46:42.663Z,5.58
2019-03-15T14:49:11.877Z,4.87
2019-03-15T14:51:41.036Z,5.62
2019-03-15T14:54:10.229Z,5.62
2019-03-15T14:56:39.372Z,4.20
2019-03-15T14:59:09.069Z,4.55
2019-03-15T15:01:38.803Z,4.50
2019-03-15T15:04:08.518Z,4.35
2019-03-15T15:06:37.677Z,5.80
2019-03-15T15:09:07.772Z,5.90
2019-03-15T15:11:37.016Z,5.05
2019-03-15T15:14:06.326Z,4.37
2019-03-15T15:16:35.407Z,4.55
2019-03-15T15:19:04.975Z,5.20
2019-03-15T15:21:34.310Z,5.42
2019-03-15T15:24:03.407Z,6.72
2019-03-15T15:26:32.449Z,5.75
2019-03-15T15:29:01.424Z,4.72
2019-03-15T15:31:30.424Z,6.28
2019-03-15T15:33:59.253Z,6.37
2019-03-15T15:36:28.501Z,5.90
2019-03-15T15:38:57.514Z,5.92
2019-03-15T15:41:26.375Z,5.80
2019-03-15T15:43:55.604Z,7.45
2019-03-15T15:46:24.898Z,8.75
2019-03-15T15:48:53.877Z,6.67
2019-03-15T15:51:22.937Z,11.28
2019-03-15T15:53:52.090Z,62.03
2019-03-15T15:56:21.245Z,21.77
2019-03-15T15:58:51.205Z,11.85
2019-03-15T16:01:20.253Z,10.72
2019-03-15T16:03:49.247Z,8.45
2019-03-15T16:06:18.551Z,9.73
2019-03-15T16:08:47.688Z,7.30
2019-03-15T16:11:16.777Z,8.00
2019-03-15T16:13:45.799Z,7.95
2019-03-15T16:16:15.480Z,8.88
2019-03-15T16:18:44.491Z,13.45
2019-03-15T16:21:14.371Z,8.60
2019-03-15T16:23:43.875Z,13.60
2019-03-15T16:26:13.185Z,8.55
2019-03-15T16:28:42.901Z,8.00
2019-03-15T16:31:12.694Z,8.65
2019-03-15T16:33:42.578Z,9.73
2019-03-15T16:36:11.705Z,9.33
2019-03-15T16:38:42.836Z,17.62
2019-03-15T16:41:13.116Z,21.27
2019-03-15T16:43:42.269Z,8.85
2019-03-15T16:46:11.424Z,10.15
2019-03-15T16:48:40.583Z,11.12
2019-03-15T16:51:19.427Z,11.78
2019-03-15T16:53:39.953Z,12.60
2019-03-15T16:56:08.991Z,12.10
2019-03-15T16:58:45.258Z,12.65
2019-03-15T17:01:07.622Z,12.05
2019-03-15T17:03:37.966Z,10.82
2019-03-15T17:06:07.384Z,10.32
2019-03-15T17:08:36.546Z,9.63
2019-03-15T17:11:05.709Z,9.73
2019-03-15T17:13:35.069Z,9.93
2019-03-15T17:16:04.905Z,8.73
2019-03-15T17:18:34.805Z,9.65
2019-03-15T17:21:03.991Z,8.40
2019-03-15T17:23:33.054Z,8.50
2019-03-15T17:26:02.375Z,8.63
2019-03-15T17:28:31.566Z,8.03
2019-03-15T17:31:09.574Z,7.92
2019-03-15T17:33:29.798Z,8.58
2019-03-15T17:35:59.031Z,8.85
2019-03-15T17:38:28.825Z,9.00
2019-03-15T17:40:57.979Z,8.63
2019-03-15T17:43:28.074Z,9.50
2019-03-15T17:45:57.070Z,22.55
2019-03-15T17:48:26.381Z,26.57
2019-03-15T17:50:55.465Z,8.80
2019-03-15T17:53:25.158Z,8.58
2019-03-15T17:55:54.173Z,6.67
2019-03-15T17:58:25.859Z,6.90
2019-03-15T18:00:52.650Z,6.22
2019-03-15T18:03:22.173Z,7.83
2019-03-15T18:05:51.286Z,6.45
2019-03-15T18:08:20.499Z,6.95
2019-03-15T18:10:50.037Z,6.12
2019-03-15T18:13:19.258Z,5.85
2019-03-15T18:15:49.598Z,6.20
2019-03-15T18:18:19.115Z,6.90
2019-03-15T18:20:48.493Z,7.33
2019-03-15T18:23:17.849Z,13.95
2019-03-15T18:25:47.767Z,45.85
2019-03-15T18:28:16.949Z,14.25
2019-03-15T18:30:46.011Z,8.10
2019-03-15T18:33:15.177Z,8.45
2019-03-15T18:35:44.292Z,9.13
2019-03-15T18:38:13.298Z,8.83
2019-03-15T18:40:42.716Z,7.45
2019-03-15T18:43:11.793Z,8.08
2019-03-15T18:45:40.781Z,11.73
2019-03-15T18:48:09.832Z,6.95
2019-03-15T18:50:38.781Z,7.05
2019-03-15T18:53:07.913Z,7.12
2019-03-15T18:55:37.023Z,6.05
2019-03-15T18:58:06.354Z,5.95
2019-03-15T19:00:35.691Z,6.12
2019-03-15T19:03:05.009Z,5.53
2019-03-15T19:05:34.457Z,6.10
2019-03-15T19:08:03.277Z,5.58
2019-03-15T19:10:32.465Z,5.78
2019-03-15T19:13:01.460Z,5.78
2019-03-15T19:15:30.568Z,5.60
2019-03-15T19:17:59.681Z,5.70
2019-03-15T19:20:28.977Z,6.33
2019-03-15T19:22:58.076Z,5.87
2019-03-15T19:25:27.404Z,56.40
2019-03-15T19:27:56.445Z,13.05
2019-03-15T19:30:25.554Z,9.03
2019-03-15T19:32:55.284Z,5.50
2019-03-15T19:35:24.432Z,6.12
2019-03-15T19:37:53.564Z,5.28
2019-03-15T19:40:22.728Z,5.92
2019-03-15T19:42:51.741Z,5.75
2019-03-15T19:45:20.770Z,5.60
2019-03-15T19:47:49.891Z,5.53
2019-03-15T19:50:19.163Z,5.60
2019-03-15T19:52:48.297Z,5.58
2019-03-15T19:55:17.447Z,5.95
2019-03-15T19:57:46.602Z,6.35
2019-03-15T20:00:16.776Z,5.55
2019-03-15T20:02:46.479Z,5.28
2019-03-15T20:05:15.539Z,6.10
2019-03-15T20:07:44.682Z,5.92
2019-03-15T20:10:16.492Z,7.53
2019-03-15T20:12:43.057Z,9.75
2019-03-15T20:15:12.370Z,16.55
2019-03-15T20:17:41.457Z,5.80
2019-03-15T20:20:11.179Z,5.62
2019-03-15T20:22:40.466Z,6.22
2019-03-15T20:25:11.172Z,6.12
2019-03-15T20:27:40.287Z,5.90
2019-03-15T20:30:21.018Z,6.60
2019-03-15T20:32:42.148Z,6.47
2019-03-15T20:35:11.282Z,5.97
2019-03-15T20:37:41.309Z,6.28
2019-03-15T20:40:10.657Z,7.08
2019-03-15T20:42:39.826Z,6.20
2019-03-15T20:45:10.672Z,6.70
2019-03-15T20:47:39.708Z,15.60
2019-03-15T20:50:09.781Z,9.25
2019-03-15T20:52:39.051Z,7.85
2019-03-15T20:55:08.396Z,9.98
2019-03-15T20:57:37.463Z,8.13
2019-03-15T21:00:07.023Z,10.50
2019-03-15T21:02:36.699Z,14.75
2019-03-15T21:05:08.007Z,16.00
2019-03-15T21:07:35.299Z,8.63
2019-03-15T21:10:04.400Z,7.00
2019-03-15T21:12:33.217Z,6.58
2019-03-15T21:15:05.729Z,10.75
2019-03-15T21:17:31.624Z,7.55
2019-03-15T21:20:00.690Z,12.05
2019-03-15T21:22:29.752Z,6.75
2019-03-15T21:24:58.883Z,8.88
2019-03-15T21:27:30.757Z,10.88
2019-03-15T21:29:59.817Z,12.78
2019-03-15T21:32:28.869Z,8.55
2019-03-15T21:34:57.976Z,7.87
2019-03-15T21:37:29.693Z,8.28
2019-03-15T21:39:56.201Z,7.87
2019-03-15T21:42:25.257Z,8.35
2019-03-15T21:44:54.437Z,8.08
2019-03-15T21:47:24.187Z,18.98
2019-03-15T21:49:53.267Z,31.05
2019-03-15T21:52:22.984Z,33.10
2019-03-15T21:54:52.071Z,28.95
2019-03-15T21:57:21.170Z,24.63
2019-03-15T21:59:50.136Z,23.38
2019-03-15T22:02:19.140Z,23.00
2019-03-15T22:04:48.152Z,20.40
2019-03-15T22:07:17.281Z,20.72
2019-03-15T22:09:46.331Z,20.10
2019-03-15T22:12:15.310Z,20.52
2019-03-15T22:14:44.552Z,20.88
2019-03-15T22:17:13.561Z,22.85
2019-03-15T22:19:42.630Z,23.92
2019-03-15T22:22:11.753Z,27.50
2019-03-15T22:24:41.020Z,28.57
2019-03-15T22:27:10.774Z,31.37
2019-03-15T22:29:48.608Z,32.55
2019-03-15T22:32:09.258Z,36.35
2019-03-15T22:34:38.330Z,34.60
2019-03-15T22:37:07.593Z,34.83
2019-03-15T22:39:36.617Z,34.27
2019-03-15T22:42:05.779Z,28.67
2019-03-15T22:44:34.840Z,27.65
2019-03-15T22:47:04.577Z,24.43
2019-03-15T22:49:33.730Z,26.02
2019-03-15T22:52:02.785Z,25.72
2019-03-15T22:54:31.841Z,23.18
2019-03-15T22:57:01.569Z,21.52
2019-03-15T22:59:30.902Z,21.35
2019-03-15T23:02:00.115Z,22.30
2019-03-15T23:04:29.229Z,19.95
2019-03-15T23:06:58.450Z,21.35
2019-03-15T23:09:27.526Z,20.88
2019-03-15T23:11:56.824Z,21.20
2019-03-15T23:14:26.190Z,20.25
2019-03-15T23:16:56.192Z,19.48
2019-03-15T23:19:25.343Z,19.65
2019-03-15T23:21:54.421Z,21.50
2019-03-15T23:24:23.530Z,21.00
2019-03-15T23:26:52.549Z,20.43
2019-03-15T23:29:21.724Z,21.35
2019-03-15T23:31:50.828Z,21.37
2019-03-15T23:34:19.954Z,19.77
2019-03-15T23:36:48.944Z,19.95
2019-03-15T23:39:17.801Z,20.05
2019-03-15T23:41:46.945Z,23.40
2019-03-15T23:44:15.993Z,21.10
2019-03-15T23:46:45.192Z,20.95
2019-03-15T23:49:14.154Z,19.95
2019-03-15T23:51:43.192Z,20.62
2019-03-15T23:54:12.323Z,19.75
2019-03-15T23:56:41.497Z,20.65
2019-03-15T23:59:10.666Z,20.90
